Time;durP1;ratioP1;P1;durP2;ratioP2;P2;SDS_P1;SDS_P2;PMS_P1;PMS_P2;Temp;Humidity;BMP_temperature;BMP_pressure;BME280_temperature;BME280_humidity;BME280_pressure;Samples;Min_cycle;Max_cycle;Signal;HPM_P1;HPM_P2
2023/04/04 00:01:08;;;;;;;6.60;2.50;;;;;;;-0.08;75.48;102474.66;7400074;19;20031;-67
2023/04/04 00:03:36;;;;;;;7.43;2.20;;;;;;;-0.13;75.28;102469.25;7397796;19;20041;-67
2023/04/04 00:06:08;;;;;;;4.13;1.83;;;;;;;-0.18;75.40;102478.47;7398097;19;20506;-67
2023/04/04 00:08:36;;;;;;;7.15;2.33;;;;;;;-0.23;75.71;102475.69;7400191;19;20423;-68
2023/04/04 00:11:05;;;;;;;3.78;2.17;;;;;;;-0.27;75.76;102484.03;7397707;19;20079;-68
2023/04/04 00:13:33;;;;;;;5.28;2.55;;;;;;;-0.31;75.90;102484.69;7398400;19;20037;-67
2023/04/04 00:16:02;;;;;;;4.03;2.17;;;;;;;-0.35;75.85;102480.22;7399531;19;20078;-68
2023/04/04 00:18:31;;;;;;;3.92;2.28;;;;;;;-0.37;75.91;102479.22;7399735;19;20090;-67
2023/04/04 00:21:00;;;;;;;7.72;2.22;;;;;;;-0.40;76.19;102476.50;7399782;19;20107;-67
2023/04/04 00:23:31;;;;;;;11.43;4.78;;;;;;;-0.43;76.26;102474.66;7398776;19;20040;-67
2023/04/04 00:26:00;;;;;;;4.07;2.10;;;;;;;-0.47;76.34;102475.28;7399695;19;20036;-67
2023/04/04 00:28:35;;;;;;;7.05;2.30;;;;;;;-0.48;76.30;102472.63;7397281;19;20014;-67
2023/04/04 00:31:03;;;;;;;4.00;2.10;;;;;;;-0.53;76.14;102478.44;7399380;19;20018;-67
2023/04/04 00:33:32;;;;;;;6.97;2.05;;;;;;;-0.56;76.25;102477.41;7397913;19;20094;-67
2023/04/04 00:36:00;;;;;;;8.32;2.28;;;;;;;-0.59;76.36;102479.84;7399297;19;20022;-67
2023/04/04 00:38:31;;;;;;;7.30;2.80;;;;;;;-0.62;76.41;102477.97;7399260;19;20018;-67
2023/04/04 00:41:00;;;;;;;5.10;2.15;;;;;;;-0.66;76.48;102478.59;7397370;19;20018;-67
2023/04/04 00:43:29;;;;;;;6.72;2.42;;;;;;;-0.68;76.73;102480.25;7398108;19;20022;-66
2023/04/04 00:45:58;;;;;;;6.70;2.30;;;;;;;-0.72;76.60;102483.44;7398372;19;20516;-68
2023/04/04 00:48:26;;;;;;;4.22;1.90;;;;;;;-0.76;76.82;102477.22;7398645;19;20019;-66
2023/04/04 00:50:55;;;;;;;4.90;2.65;;;;;;;-0.78;76.94;102475.38;7398859;19;20073;-67
2023/04/04 00:53:24;;;;;;;8.98;3.15;;;;;;;-0.80;77.01;102474.44;7397393;19;20018;-66
2023/04/04 00:55:55;;;;;;;6.28;2.33;;;;;;;-0.86;76.83;102475.88;7396167;19;20019;-66
2023/04/04 00:58:23;;;;;;;5.28;2.33;;;;;;;-0.88;77.23;102466.28;7399103;19;20014;-66
2023/04/04 01:00:53;;;;;;;4.10;2.20;;;;;;;-0.92;76.97;102474.66;7397885;19;20509;-66
2023/04/04 01:03:21;;;;;;;8.80;2.65;;;;;;;-0.95;77.10;102471.91;7397542;19;20418;-66
2023/04/04 01:05:50;;;;;;;6.05;3.03;;;;;;;-1.01;77.17;102470.78;7395973;19;20010;-66
2023/04/04 01:08:24;;;;;;;3.78;2.10;;;;;;;-1.04;77.11;102464.59;7395804;19;20495;-66
2023/04/04 01:10:55;;;;;;;5.82;2.60;;;;;;;-1.08;77.35;102468.69;7396730;19;20014;-66
2023/04/04 01:13:24;;;;;;;7.88;2.65;;;;;;;-1.11;77.48;102465.97;7398252;19;20014;-67
2023/04/04 01:15:53;;;;;;;5.03;2.33;;;;;;;-1.14;77.53;102468.34;7398034;19;20022;-66
2023/04/04 01:18:24;;;;;;;9.23;2.30;;;;;;;-1.18;77.71;102463.84;7397846;19;20022;-67
2023/04/04 01:20:58;;;;;;;8.13;2.85;;;;;;;-1.20;77.75;102474.06;7395954;19;20018;-67
2023/04/04 01:23:36;;;;;;;8.10;2.25;;;;;;;-1.24;77.57;102467.00;7396590;19;20427;-66
2023/04/04 01:26:08;;;;;;;5.85;2.03;;;;;;;-1.27;77.73;102466.81;7396010;19;20026;-66
2023/04/04 01:28:36;;;;;;;7.45;3.13;;;;;;;-1.30;77.98;102458.94;7396424;19;20081;-67
2023/04/04 01:31:10;;;;;;;9.80;2.38;;;;;;;-1.32;78.00;102452.78;7397426;19;20022;-67
2023/04/04 01:33:42;;;;;;;8.43;2.70;;;;;;;-1.37;77.95;102455.09;7396620;19;20035;-66
2023/04/04 01:36:19;;;;;;;7.40;2.17;;;;;;;-1.38;78.15;102447.31;7397727;19;20422;-65
2023/04/04 01:38:55;;;;;;;5.25;2.33;;;;;;;-1.40;78.33;102449.81;7397701;19;20048;-66
2023/04/04 01:41:27;;;;;;;8.73;2.00;;;;;;;-1.44;78.12;102447.88;7396895;19;20371;-65
2023/04/04 01:43:57;;;;;;;3.88;2.00;;;;;;;-1.47;78.28;102447.69;7396261;19;20031;-65
2023/04/04 01:46:26;;;;;;;5.00;2.50;;;;;;;-1.49;78.30;102449.31;7396963;19;20026;-66
2023/04/04 01:48:54;;;;;;;6.32;2.15;;;;;;;-1.53;78.39;102444.75;7396944;19;20031;-66
2023/04/04 01:51:25;;;;;;;7.10;2.40;;;;;;;-1.57;78.41;102443.72;7396830;19;20026;-66
2023/04/04 01:53:54;;;;;;;4.93;2.20;;;;;;;-1.58;78.68;102441.97;7395861;19;20014;-66
2023/04/04 01:56:22;;;;;;;6.95;2.40;;;;;;;-1.61;78.64;102436.63;7396568;19;20031;-66
2023/04/04 01:58:53;;;;;;;7.25;2.38;;;;;;;-1.64;78.89;102436.47;7396564;19;20028;-66
2023/04/04 02:01:22;;;;;;;6.47;2.03;;;;;;;-1.64;78.79;102441.63;7396644;19;20014;-66
2023/04/04 02:03:51;;;;;;;5.53;2.53;;;;;;;-1.68;79.05;102437.06;7395051;19;20377;-66
2023/04/04 02:06:20;;;;;;;6.28;2.10;;;;;;;-1.73;78.91;102433.38;7395991;19;20007;-66
2023/04/04 02:08:48;;;;;;;4.45;2.40;;;;;;;-1.75;78.91;102434.97;7395959;19;20360;-66
2023/04/04 02:11:17;;;;;;;4.75;2.33;;;;;;;-1.77;78.99;102427.16;7397534;19;20030;-65
2023/04/04 02:13:45;;;;;;;9.40;2.17;;;;;;;-1.78;79.30;102427.97;7395206;19;20497;-66
2023/04/04 02:16:17;;;;;;;7.63;2.25;;;;;;;-1.80;79.40;102432.16;7395925;19;20078;-66
2023/04/04 02:18:45;;;;;;;6.70;2.70;;;;;;;-1.82;79.32;102433.72;7396315;19;20043;-66
2023/04/04 02:21:14;;;;;;;5.65;2.78;;;;;;;-1.83;79.51;102431.97;7395602;19;20037;-65
2023/04/04 02:23:42;;;;;;;5.35;2.10;;;;;;;-1.86;79.56;102424.06;7394930;19;20018;-65
2023/04/04 02:26:11;;;;;;;3.97;2.30;;;;;;;-1.89;79.60;102427.38;7395319;19;20544;-65
2023/04/04 02:28:39;;;;;;;5.78;2.65;;;;;;;-1.92;79.82;102422.06;7392826;19;20073;-66
2023/04/04 02:31:08;;;;;;;5.97;2.15;;;;;;;-1.95;79.92;102419.28;7395402;19;20399;-65
2023/04/04 02:33:39;;;;;;;6.30;2.20;;;;;;;-2.00;79.95;102423.28;7394674;19;20035;-65
2023/04/04 02:36:08;;;;;;;6.18;2.90;;;;;;;-2.02;80.04;102418.06;7394504;19;20014;-65
2023/04/04 02:38:37;;;;;;;7.35;2.10;;;;;;;-2.05;80.07;102420.44;7395450;19;20015;-66
2023/04/04 02:41:05;;;;;;;3.70;2.03;;;;;;;-2.08;80.10;102419.41;7395294;19;20053;-65
2023/04/04 02:43:34;;;;;;;7.82;2.42;;;;;;;-2.10;80.31;102416.72;7394061;19;20022;-65
2023/04/04 02:46:02;;;;;;;8.52;2.75;;;;;;;-2.11;80.32;102416.66;7394927;19;20018;-65
2023/04/04 02:48:31;;;;;;;4.22;2.38;;;;;;;-2.14;80.46;102413.13;7392819;19;20501;-65
2023/04/04 02:51:02;;;;;;;3.28;2.20;;;;;;;-2.17;80.30;102412.94;7394512;19;20497;-65
2023/04/04 02:53:30;;;;;;;7.60;2.08;;;;;;;-2.20;80.51;102410.19;7393151;19;20030;-65
2023/04/04 02:55:59;;;;;;;5.53;2.35;;;;;;;-2.22;80.46;102408.34;7392862;19;20019;-65
2023/04/04 02:58:27;;;;;;;7.25;2.80;;;;;;;-2.25;80.70;102413.28;7394617;19;20018;-66
2023/04/04 03:00:56;;;;;;;13.93;3.85;;;;;;;-2.27;80.85;102404.59;7393952;19;20545;-65
2023/04/04 03:03:24;;;;;;;3.72;2.42;;;;;;;-2.29;80.81;102401.94;7393653;19;20028;-65
2023/04/04 03:05:53;;;;;;;8.18;2.30;;;;;;;-2.32;80.95;102396.63;7394480;19;20015;-66
2023/04/04 03:08:25;;;;;;;5.25;2.10;;;;;;;-2.33;81.02;102398.31;7392484;19;20018;-65
2023/04/04 03:10:53;;;;;;;5.50;2.30;;;;;;;-2.34;81.17;102385.38;7394691;19;20018;-66
2023/04/04 03:13:21;;;;;;;4.63;2.35;;;;;;;-2.37;80.94;102395.50;7393144;19;20471;-65
2023/04/04 03:15:50;;;;;;;5.70;1.88;;;;;;;-2.39;81.22;102397.97;7392738;19;20074;-65
2023/04/04 03:18:18;;;;;;;4.38;2.20;;;;;;;-2.41;81.07;102396.09;7394314;19;20085;-65
2023/04/04 03:20:47;;;;;;;7.90;2.75;;;;;;;-2.43;81.20;102390.00;7391900;19;20074;-66
2023/04/04 03:23:15;;;;;;;4.82;2.40;;;;;;;-2.45;81.36;102389.91;7393502;19;20023;-64
2023/04/04 03:25:46;;;;;;;7.55;2.08;;;;;;;-2.47;81.11;102386.34;7394123;19;20086;-65
2023/04/04 03:28:21;;;;;;;7.40;2.63;;;;;;;-2.49;81.29;102383.69;7392638;19;20086;-65
2023/04/04 03:30:56;;;;;;;7.50;2.42;;;;;;;-2.50;81.17;102379.34;7394469;19;20025;-66
2023/04/04 03:33:26;;;;;;;8.65;2.88;;;;;;;-2.52;81.55;102377.50;7393061;19;20424;-65
2023/04/04 03:35:54;;;;;;;6.97;2.83;;;;;;;-2.54;81.29;102377.41;7391381;19;20022;-65
2023/04/04 03:38:23;;;;;;;7.88;2.38;;;;;;;-2.57;81.42;102372.06;7393871;19;20024;-65
2023/04/04 03:41:03;;;;;;;7.93;2.40;;;;;;;-2.58;81.69;102374.56;7395922;19;20489;-65
2023/04/04 03:43:32;;;;;;;7.78;2.40;;;;;;;-2.60;81.71;102371.91;7400081;19;20410;-65
2023/04/04 03:46:03;;;;;;;5.82;2.80;;;;;;;-2.62;81.57;102370.91;7397883;19;20369;-66
2023/04/04 03:48:32;;;;;;;7.70;2.55;;;;;;;-2.66;82.00;102368.97;7400453;19;20485;-65
2023/04/04 03:51:01;;;;;;;6.13;2.33;;;;;;;-2.68;81.78;102374.03;7400386;19;20543;-65
2023/04/04 03:53:30;;;;;;;5.88;2.63;;;;;;;-2.69;81.75;102368.78;7399609;19;20035;-65
2023/04/04 03:56:01;;;;;;;9.45;2.83;;;;;;;-2.72;82.19;102368.63;7398603;19;20025;-65
2023/04/04 03:58:30;;;;;;;6.80;2.63;;;;;;;-2.74;82.18;102370.19;7400535;19;20082;-65
2023/04/04 04:00:58;;;;;;;8.23;2.78;;;;;;;-2.74;82.12;102362.47;7400309;19;20021;-64
2023/04/04 04:03:27;;;;;;;7.45;2.78;;;;;;;-2.76;82.28;102364.09;7399111;19;20386;-65
2023/04/04 04:05:56;;;;;;;7.60;2.78;;;;;;;-2.76;82.23;102366.66;7400181;19;20086;-65
2023/04/04 04:08:24;;;;;;;6.45;2.85;;;;;;;-2.78;82.27;102367.47;7397645;19;20015;-66
2023/04/04 04:10:53;;;;;;;6.78;3.10;;;;;;;-2.79;82.17;102365.69;7399831;19;20548;-65
2023/04/04 04:13:25;;;;;;;9.25;3.00;;;;;;;-2.82;82.27;102360.38;7398906;19;20078;-66
2023/04/04 04:15:56;;;;;;;5.82;2.85;;;;;;;-2.83;82.48;102361.16;7398756;19;20010;-66
2023/04/04 04:18:24;;;;;;;4.25;2.47;;;;;;;-2.85;82.47;102364.44;7400154;19;20102;-66
2023/04/04 04:20:58;;;;;;;5.13;2.72;;;;;;;-2.86;82.68;102362.66;7399786;19;20028;-66
2023/04/04 04:23:26;;;;;;;7.57;2.88;;;;;;;-2.88;82.72;102365.16;7399010;19;20022;-66
2023/04/04 04:25:54;;;;;;;6.70;3.10;;;;;;;-2.89;82.43;102365.94;7399599;19;20087;-66
2023/04/04 04:28:26;;;;;;;6.60;2.92;;;;;;;-2.91;82.66;102359.81;7398343;19;20398;-66
2023/04/04 04:30:55;;;;;;;6.53;2.95;;;;;;;-2.92;82.61;102363.16;7399535;19;20015;-66
2023/04/04 04:33:31;;;;;;;9.48;2.90;;;;;;;-2.95;82.85;102363.00;7398150;19;20014;-66
2023/04/04 04:36:01;;;;;;;7.00;2.70;;;;;;;-2.94;82.79;102364.78;7398109;19;20014;-66
2023/04/04 04:38:30;;;;;;;8.40;2.50;;;;;;;-2.96;82.87;102368.91;7398602;19;20433;-66
2023/04/04 04:40:59;;;;;;;5.18;2.97;;;;;;;-2.99;83.07;102367.06;7398366;19;20086;-66
2023/04/04 04:43:30;;;;;;;6.07;2.55;;;;;;;-3.00;82.85;102366.97;7397740;19;20078;-66
2023/04/04 04:45:58;;;;;;;8.20;3.17;;;;;;;-3.01;83.17;102367.75;7396701;19;20078;-66
2023/04/04 04:48:27;;;;;;;8.52;4.15;;;;;;;-3.03;83.07;102371.91;7396456;19;20032;-66
2023/04/04 04:50:55;;;;;;;16.00;4.57;;;;;;;-3.06;83.06;102370.03;7397693;19;20500;-66
2023/04/04 04:53:24;;;;;;;12.75;6.85;;;;;;;-3.04;83.34;102383.00;7396095;19;20014;-66
2023/04/04 04:55:53;;;;;;;13.95;7.53;;;;;;;-3.05;83.42;102381.22;7396123;19;20438;-66
2023/04/04 04:58:23;;;;;;;14.68;7.93;;;;;;;-3.05;83.51;102381.22;7395802;19;20015;-66
2023/04/04 05:00:57;;;;;;;19.65;10.45;;;;;;;-3.05;83.60;102383.78;7399082;19;20075;-65
2023/04/04 05:03:26;;;;;;;15.80;9.75;;;;;;;-3.04;83.47;102388.13;7397350;19;20024;-65
2023/04/04 05:05:55;;;;;;;15.45;8.85;;;;;;;-3.04;83.41;102385.56;7398208;19;20074;-65
2023/04/04 05:08:23;;;;;;;13.50;9.10;;;;;;;-3.05;83.59;102389.81;7397183;19;20384;-65
2023/04/04 05:10:53;;;;;;;18.15;9.32;;;;;;;-3.06;83.56;102390.59;7397785;19;20019;-65
2023/04/04 05:13:22;;;;;;;13.07;7.53;;;;;;;-3.05;83.86;102388.94;7398324;19;20021;-66
2023/04/04 05:15:53;;;;;;;11.88;5.95;;;;;;;-3.06;83.84;102394.84;7396649;19;20007;-65
2023/04/04 05:18:22;;;;;;;14.40;6.25;;;;;;;-3.07;83.61;102391.41;7398181;19;20023;-65
2023/04/04 05:20:54;;;;;;;13.90;6.78;;;;;;;-3.06;83.76;102402.56;7397205;19;20022;-65
2023/04/04 05:23:23;;;;;;;13.43;8.20;;;;;;;-3.06;83.92;102405.13;7396761;19;20045;-65
2023/04/04 05:25:52;;;;;;;12.07;5.63;;;;;;;-3.07;84.13;102401.69;7395627;19;20022;-65
2023/04/04 05:28:21;;;;;;;10.73;5.57;;;;;;;-3.06;83.99;102405.13;7396488;19;20010;-66
2023/04/04 05:30:50;;;;;;;11.18;5.63;;;;;;;-3.06;83.99;102408.56;7396796;19;20500;-66
2023/04/04 05:33:22;;;;;;;7.28;4.00;;;;;;;-3.05;84.02;102410.34;7396336;19;20035;-66
2023/04/04 05:35:50;;;;;;;9.55;3.92;;;;;;;-3.03;84.27;102419.03;7396812;19;20021;-67
2023/04/04 05:38:19;;;;;;;10.57;4.35;;;;;;;-3.00;84.25;102418.34;7396835;19;20070;-67
2023/04/04 05:40:47;;;;;;;5.28;3.95;;;;;;;-3.00;84.26;102424.34;7397114;19;20039;-65
2023/04/04 05:43:15;;;;;;;9.02;4.32;;;;;;;-2.98;84.53;102421.91;7395634;19;20541;-65
2023/04/04 05:45:44;;;;;;;6.75;4.88;;;;;;;-2.96;84.31;102420.28;7396813;19;20078;-65
2023/04/04 05:48:14;;;;;;;11.05;4.35;;;;;;;-2.93;84.45;102423.06;7396518;19;20078;-65
2023/04/04 05:50:47;;;;;;;12.35;4.97;;;;;;;-2.89;84.27;102419.88;7396764;19;20023;-66
2023/04/04 05:53:15;;;;;;;8.95;4.72;;;;;;;-2.86;84.23;102422.63;7395604;19;20040;-65
2023/04/04 05:55:44;;;;;;;7.55;4.25;;;;;;;-2.83;84.39;102430.53;7395879;19;20093;-66
2023/04/04 05:58:12;;;;;;;7.65;4.07;;;;;;;-2.81;84.51;102423.78;7396423;19;20018;-65
2023/04/04 06:00:41;;;;;;;12.07;4.95;;;;;;;-2.79;84.44;102419.63;7396420;19;20031;-65
2023/04/04 06:03:09;;;;;;;15.55;4.45;;;;;;;-2.74;84.57;102426.72;7392584;19;20015;-65
2023/04/04 06:05:38;;;;;;;6.63;3.60;;;;;;;-2.70;84.44;102424.44;7396154;19;20090;-66
2023/04/04 06:08:09;;;;;;;6.07;3.70;;;;;;;-2.66;84.46;102422.94;7395964;19;20070;-65
2023/04/04 06:10:38;;;;;;;6.28;3.22;;;;;;;-2.62;84.13;102424.88;7396550;19;20420;-66
2023/04/04 06:13:06;;;;;;;7.75;4.20;;;;;;;-2.58;84.24;102420.81;7395117;19;20484;-65
2023/04/04 06:15:35;;;;;;;6.90;3.25;;;;;;;-2.54;84.31;102418.53;7395611;19;20035;-66
2023/04/04 06:18:03;;;;;;;6.30;2.90;;;;;;;-2.51;84.09;102418.69;7395475;19;20419;-65
2023/04/04 06:20:32;;;;;;;9.55;3.30;;;;;;;-2.47;84.08;102423.22;7393358;19;20069;-65
2023/04/04 06:23:03;;;;;;;10.65;3.67;;;;;;;-2.43;84.25;102420.84;7394693;19;20544;-64
2023/04/04 06:25:55;;;;;;;8.55;3.55;;;;;;;-2.37;84.04;102421.19;7394820;19;20481;-65
2023/04/04 06:28:31;;;;;;;7.18;3.60;;;;;;;-2.31;84.08;102418.97;7394776;19;20376;-65
2023/04/04 06:31:07;;;;;;;10.93;5.78;;;;;;;-2.26;84.11;102427.84;7394601;19;20101;-66
2023/04/04 06:33:35;;;;;;;13.80;6.38;;;;;;;-2.19;84.02;102411.06;7394349;19;20014;-66
2023/04/04 06:36:04;;;;;;;7.40;3.65;;;;;;;-2.12;84.25;102418.34;7393960;19;20095;-66
2023/04/04 06:38:33;;;;;;;8.68;4.18;;;;;;;-2.04;84.06;102418.78;7395021;19;20579;-66
2023/04/04 06:41:04;;;;;;;5.53;3.28;;;;;;;-1.96;84.10;102422.66;7394807;19;20378;-66
2023/04/04 06:43:32;;;;;;;6.72;3.20;;;;;;;-1.89;84.01;102416.19;7394500;19;20086;-66
2023/04/04 06:46:01;;;;;;;11.25;4.35;;;;;;;-1.82;83.96;102419.19;7392502;19;20352;-68
2023/04/04 06:48:30;;;;;;;11.80;3.13;;;;;;;-1.74;83.79;102418.75;7395439;19;20014;-66
2023/04/04 06:50:58;;;;;;;9.85;3.58;;;;;;;-1.67;83.56;102414.03;7394843;19;20121;-66
2023/04/04 06:53:27;;;;;;;9.52;3.35;;;;;;;-1.60;83.51;102415.25;7394184;19;20022;-67
2023/04/04 06:55:55;;;;;;;5.18;3.30;;;;;;;-1.52;83.44;102413.94;7394289;19;20073;-67
2023/04/04 06:58:26;;;;;;;7.90;3.08;;;;;;;-1.45;83.06;102414.28;7394516;19;20069;-66
2023/04/04 07:00:55;;;;;;;6.45;3.25;;;;;;;-1.36;82.79;102412.22;7395038;19;20066;-66
2023/04/04 07:03:25;;;;;;;9.68;2.90;;;;;;;-1.28;82.91;102415.22;7393127;19;20014;-65
2023/04/04 07:05:53;;;;;;;7.38;2.53;;;;;;;-1.21;82.62;102409.59;7394520;19;20014;-65
2023/04/04 07:08:22;;;;;;;5.43;2.53;;;;;;;-1.11;82.48;102411.84;7393985;19;20548;-65
2023/04/04 07:10:50;;;;;;;8.73;3.30;;;;;;;-1.02;81.82;102420.06;7394339;19;20078;-65
2023/04/04 07:13:19;;;;;;;7.90;2.03;;;;;;;-0.95;81.70;102413.53;7393850;19;20074;-66
2023/04/04 07:15:50;;;;;;;5.85;1.95;;;;;;;-0.86;81.11;102415.69;7396746;19;20086;-64
2023/04/04 07:18:19;;;;;;;6.68;2.55;;;;;;;-0.79;80.77;102412.66;7401634;19;20018;-65
2023/04/04 07:20:48;;;;;;;6.50;1.95;;;;;;;-0.72;80.90;102413.84;7401513;19;20074;-65
2023/04/04 07:23:16;;;;;;;4.28;2.03;;;;;;;-0.64;80.01;102404.81;7400495;19;20014;-66
2023/04/04 07:25:45;;;;;;;6.15;2.25;;;;;;;-0.55;80.52;102404.41;7401286;19;20021;-67
2023/04/04 07:28:13;;;;;;;7.88;2.00;;;;;;;-0.47;80.75;102408.25;7400888;19;20414;-65
2023/04/04 07:30:42;;;;;;;6.55;2.60;;;;;;;-0.38;80.12;102407.81;7401237;19;20023;-65
2023/04/04 07:33:13;;;;;;;5.07;1.80;;;;;;;-0.27;79.05;102405.78;7399745;19;20029;-66
2023/04/04 07:35:42;;;;;;;7.55;2.30;;;;;;;-0.18;78.96;102408.81;7400215;19;20415;-66
2023/04/04 07:38:11;;;;;;;4.68;1.63;;;;;;;-0.10;78.90;102394.59;7400898;19;20010;-66
2023/04/04 07:40:40;;;;;;;7.20;2.20;;;;;;;-0.03;77.93;102396.66;7400190;19;20018;-66
2023/04/04 07:43:08;;;;;;;5.32;1.67;;;;;;;0.04;76.85;102395.28;7399914;19;20045;-64
2023/04/04 07:45:43;;;;;;;2.67;1.15;;;;;;;0.11;77.12;102394.72;7401344;19;20015;-65
2023/04/04 07:48:14;;;;;;;6.43;1.63;;;;;;;0.17;75.61;102388.13;7400706;19;20086;-65
2023/04/04 07:50:42;;;;;;;5.25;2.08;;;;;;;0.22;75.97;102392.66;7400610;19;20011;-65
2023/04/04 07:53:11;;;;;;;4.00;1.35;;;;;;;0.29;75.86;102392.16;7399491;19;20094;-65
2023/04/04 07:55:39;;;;;;;7.70;1.75;;;;;;;0.35;75.64;102391.53;7397252;19;20078;-65
2023/04/04 07:58:08;;;;;;;4.55;2.00;;;;;;;0.40;75.15;102387.47;7398199;19;20081;-65
2023/04/04 08:00:36;;;;;;;2.90;1.38;;;;;;;0.47;74.38;102386.94;7397270;19;20014;-66
2023/04/04 08:03:05;;;;;;;6.50;1.73;;;;;;;0.55;74.15;102386.44;7399443;19;20027;-65
2023/04/04 08:05:36;;;;;;;3.28;1.65;;;;;;;0.61;73.10;102384.13;7399960;19;20022;-65
2023/04/04 08:08:04;;;;;;;4.57;1.88;;;;;;;0.67;73.20;102389.59;7400322;19;20083;-68
2023/04/04 08:10:33;;;;;;;22.63;10.45;;;;;;;0.71;73.41;102381.16;7399628;19;20089;-66
2023/04/04 08:13:03;;;;;;;2.55;1.80;;;;;;;0.74;69.72;102381.28;7399454;19;20051;-65
2023/04/04 08:15:31;;;;;;;2.88;1.05;;;;;;;0.78;70.33;102375.44;7396975;19;20029;-66
2023/04/04 08:18:00;;;;;;;2.90;1.65;;;;;;;0.83;71.65;102377.34;7396398;19;20095;-65
2023/04/04 08:20:29;;;;;;;4.72;1.75;;;;;;;0.88;69.57;102370.69;7399140;19;20014;-65
2023/04/04 08:23:00;;;;;;;4.97;1.58;;;;;;;0.91;69.86;102366.53;7398715;19;20022;-64
2023/04/04 08:25:29;;;;;;;7.00;2.15;;;;;;;0.95;69.56;102363.25;7395854;19;20512;-66
2023/04/04 08:27:57;;;;;;;3.20;1.80;;;;;;;1.00;69.84;102366.06;7397487;19;20433;-65
2023/04/04 08:30:26;;;;;;;1.85;1.33;;;;;;;1.06;69.71;102358.56;7396717;19;20014;-66
2023/04/04 08:32:54;;;;;;;3.13;1.17;;;;;;;1.10;68.86;102363.06;7397810;19;20070;-66
2023/04/04 08:35:23;;;;;;;2.45;1.27;;;;;;;1.16;68.98;102359.84;7398243;19;20082;-65
2023/04/04 08:37:51;;;;;;;3.65;1.60;;;;;;;1.21;68.42;102355.72;7396523;19;20552;-65
2023/04/04 08:40:23;;;;;;;5.10;1.30;;;;;;;1.27;68.56;102360.31;7396934;19;20017;-65
2023/04/04 08:42:53;;;;;;;4.55;1.60;;;;;;;1.33;67.66;102351.91;7398242;19;20090;-66
2023/04/04 08:45:23;;;;;;;7.18;1.23;;;;;;;1.39;66.75;102359.91;7398478;19;20477;-66
2023/04/04 08:47:53;;;;;;;1.70;1.40;;;;;;;1.43;64.63;102347.19;7398516;19;20418;-65
2023/04/04 08:50:24;;;;;;;5.07;1.25;;;;;;;1.48;66.10;102355.16;7398646;19;20023;-66
2023/04/04 08:52:53;;;;;;;4.45;1.17;;;;;;;1.52;63.62;102358.75;7398693;19;20420;-66
2023/04/04 08:55:24;;;;;;;5.82;1.42;;;;;;;1.56;61.95;102366.69;7398398;19;20070;-66
2023/04/04 08:57:53;;;;;;;2.55;1.33;;;;;;;1.64;63.55;102359.25;7396971;19;20078;-66
2023/04/04 09:00:22;;;;;;;2.63;1.10;;;;;;;1.67;59.45;102356.78;7398270;19;20039;-66
2023/04/04 09:02:58;;;;;;;3.25;1.00;;;;;;;1.72;60.64;102365.63;7397605;19;20427;-67
2023/04/04 09:05:27;;;;;;;3.95;1.10;;;;;;;1.77;61.38;102366.69;7399615;19;20023;-65
2023/04/04 09:07:57;;;;;;;4.20;1.17;;;;;;;1.85;61.76;102363.53;7398246;19;20355;-66
2023/04/04 09:10:28;;;;;;;3.17;1.30;;;;;;;1.92;60.77;102362.94;7396867;19;20085;-66
2023/04/04 09:12:58;;;;;;;2.78;1.75;;;;;;;2.01;61.63;102359.84;7398048;19;20015;-66
2023/04/04 09:15:27;;;;;;;2.25;1.20;;;;;;;2.05;61.85;102357.44;7397117;19;20078;-67
2023/04/04 09:17:55;;;;;;;3.03;1.20;;;;;;;2.13;62.38;102362.03;7394999;19;20074;-67
2023/04/04 09:20:40;;;;;;;3.67;1.20;;;;;;;2.18;57.08;102355.34;7398421;19;20039;-68
2023/04/04 09:23:10;;;;;;;;;;;;;;;2.26;57.70;102351.31;7398706;19;20015;-67
2023/04/04 09:25:46;;;;;;;2.30;1.25;;;;;;;2.34;61.79;102349.00;7395899;19;19918;-66
2023/04/04 09:28:16;;;;;;;2.67;1.10;;;;;;;2.41;61.90;102345.84;7396926;19;20074;-67
2023/04/04 09:30:47;;;;;;;4.47;1.27;;;;;;;2.52;60.19;102346.25;7395168;19;20029;-66
2023/04/04 09:33:17;;;;;;;3.45;1.10;;;;;;;2.63;59.64;102344.94;7396078;19;20029;-67
2023/04/04 09:35:47;;;;;;;2.40;1.00;;;;;;;2.73;58.44;102347.03;7396581;19;20018;-70
2023/04/04 09:38:17;;;;;;;3.08;1.30;;;;;;;2.82;58.68;102345.59;7392351;19;20019;-66
2023/04/04 09:40:48;;;;;;;6.25;1.42;;;;;;;2.88;58.28;102344.13;7397468;19;20021;-66
2023/04/04 09:43:18;;;;;;;4.25;1.23;;;;;;;2.89;55.74;102342.41;7394282;19;20074;-66
2023/04/04 09:45:47;;;;;;;3.80;1.15;;;;;;;2.90;57.81;102337.25;7394004;19;20037;-66
2023/04/04 09:48:27;;;;;;;3.10;1.30;;;;;;;2.88;49.69;102340.63;7396464;19;20023;-66
2023/04/04 09:50:56;;;;;;;4.45;1.00;;;;;;;2.90;53.50;102334.66;7396617;19;20493;-66
2023/04/04 09:53:25;;;;;;;1.40;0.90;;;;;;;2.93;54.16;102331.31;7394598;19;20019;-65
2023/04/04 09:55:57;;;;;;;4.28;1.35;;;;;;;2.98;55.38;102337.53;7394245;19;20480;-65
2023/04/04 09:58:27;;;;;;;5.35;1.48;;;;;;;3.05;55.20;102333.47;7394410;19;20081;-65
2023/04/04 10:00:57;;;;;;;3.17;1.10;;;;;;;3.12;54.85;102329.38;7395880;19;20019;-65
2023/04/04 10:03:27;;;;;;;4.13;1.00;;;;;;;3.18;54.45;102330.44;7395796;19;20039;-65
2023/04/04 10:06:01;;;;;;;2.15;1.40;;;;;;;3.26;53.31;102326.41;7398142;19;20039;-67
2023/04/04 10:08:31;;;;;;;2.53;0.80;;;;;;;3.36;53.83;102329.31;7398235;19;20014;-68
2023/04/04 10:11:03;;;;;;;3.92;1.10;;;;;;;3.43;51.98;102324.38;7396333;19;20022;-66
2023/04/04 10:13:34;;;;;;;4.47;1.70;;;;;;;3.52;54.26;102323.78;7393725;19;20515;-66
2023/04/04 10:16:04;;;;;;;2.42;1.13;;;;;;;3.64;54.49;102331.13;7396290;19;20048;-66
2023/04/04 10:18:34;;;;;;;1.48;1.33;;;;;;;3.73;52.58;102325.34;7393868;19;20023;-65
2023/04/04 10:21:04;;;;;;;3.53;1.55;;;;;;;3.81;48.84;102330.78;7395824;19;20078;-69
2023/04/04 10:23:35;;;;;;;2.83;1.00;;;;;;;3.86;43.56;102334.41;7394233;19;20015;-66
2023/04/04 10:26:06;;;;;;;2.78;1.00;;;;;;;3.88;48.30;102331.00;7394813;19;20018;-65
2023/04/04 10:28:35;;;;;;;5.07;2.42;;;;;;;3.91;49.79;102328.50;7395075;19;20018;-65
2023/04/04 10:31:10;;;;;;;4.78;1.30;;;;;;;3.94;46.02;102322.50;7393878;19;20026;-66
2023/04/04 10:33:48;;;;;;;2.63;1.33;;;;;;;3.97;47.57;102324.31;7394214;19;20085;-64
2023/04/04 10:36:22;;;;;;;8.55;4.32;;;;;;;4.03;48.81;102320.22;7393741;19;20074;-66
2023/04/04 10:38:54;;;;;;;;;;;;;;;4.10;45.15;102321.28;7394833;19;20018;-66
2023/04/04 10:41:26;;;;;;;5.03;2.75;;;;;;;4.17;50.47;102310.25;7395536;19;19922;-66
2023/04/04 10:44:02;;;;;;;9.27;3.33;;;;;;;4.28;50.91;102302.75;7393844;19;20075;-65
2023/04/04 10:46:33;;;;;;;2.92;1.60;;;;;;;4.43;49.74;102297.13;7395211;19;20014;-65
2023/04/04 10:49:03;;;;;;;4.25;1.20;;;;;;;4.59;47.62;102297.56;7395207;19;20357;-66
2023/04/04 10:51:32;;;;;;;6.05;1.60;;;;;;;4.73;49.34;102293.63;7402699;19;20045;-66
2023/04/04 10:54:02;;;;;;;4.95;1.77;;;;;;;4.85;49.91;102288.78;7399015;19;20388;-68
2023/04/04 10:56:33;;;;;;;3.55;1.45;;;;;;;4.98;48.40;102283.88;7399967;19;20088;-67
2023/04/04 10:59:14;;;;;;;2.65;1.15;;;;;;;5.05;48.71;102275.38;7399811;19;20031;-65
2023/04/04 11:01:51;;;;;;;3.08;1.30;;;;;;;5.16;46.03;102286.09;7402461;19;20432;-66
2023/04/04 11:04:21;;;;;;;4.72;1.70;;;;;;;5.24;48.05;102283.66;7399082;19;20014;-64
2023/04/04 11:07:20;;;;;;;3.45;1.55;;;;;;;5.22;44.39;102284.50;7401766;19;20081;-65
2023/04/04 11:09:53;;;;;;;3.95;1.40;;;;;;;5.19;45.10;102286.16;7401361;19;20011;-67
2023/04/04 11:12:32;;;;;;;6.18;1.73;;;;;;;5.10;44.45;102278.13;7397926;19;20015;-65
2023/04/04 11:15:10;;;;;;;4.40;1.45;;;;;;;5.04;46.37;102273.63;7401456;19;20019;-68
2023/04/04 11:17:58;;;;;;;4.57;1.70;;;;;;;5.06;45.28;102265.00;7400206;19;20015;-66
2023/04/04 11:20:31;;;;;;;4.68;1.45;;;;;;;5.08;44.22;102274.59;7400942;19;20015;-66
2023/04/04 11:23:05;;;;;;;3.72;1.20;;;;;;;5.08;46.58;102266.78;7397441;19;20011;-65
2023/04/04 11:25:34;;;;;;;;;;;;;;;5.09;45.00;102271.16;7399384;19;20014;-66
2023/04/04 11:28:10;;;;;;;4.82;1.35;;;;;;;5.12;46.85;102266.00;7398231;19;19923;-66
2023/04/04 11:30:47;;;;;;;3.75;1.42;;;;;;;5.17;48.20;102265.31;7398479;19;20019;-66
2023/04/04 11:33:26;;;;;;;4.80;1.40;;;;;;;5.27;49.17;102256.00;7399252;19;20485;-66
2023/04/04 11:36:00;;;;;;;3.53;1.52;;;;;;;5.38;46.46;102244.13;7400845;19;20017;-66
2023/04/04 11:38:30;;;;;;;3.03;1.48;;;;;;;5.48;48.42;102240.00;7398194;19;20039;-67
2023/04/04 11:40:59;;;;;;;2.58;0.98;;;;;;;5.60;46.16;102249.84;7401033;19;20014;-67